Time;durP1;ratioP1;P1;durP2;ratioP2;P2;SDS_P1;SDS_P2;PMS_P1;PMS_P2;Temp;Humidity;BMP_temperature;BMP_pressure;BME280_temperature;BME280_humidity;BME280_pressure;Samples;Min_cycle;Max_cycle;Signal;HPM_P1;HPM_P2
2022/09/14 00:01:19;;;;;;;;;;;;;;;14.71;90.06;97305.92;1745049;82;21157;-86
2022/09/14 00:03:45;;;;;;;;;;;;;;;14.66;90.49;97297.33;1744686;82;20221;-89
2022/09/14 00:06:13;;;;;;;;;;;;;;;14.63;90.51;97300.15;1744726;82;20323;-89
2022/09/14 00:08:38;;;;;;;;;;;;;;;14.63;90.76;97300.71;1744832;82;20191;-86
2022/09/14 00:11:05;;;;;;;;;;;;;;;14.61;90.70;97302.94;1745044;82;20188;-89
2022/09/14 00:13:31;;;;;;;;;;;;;;;14.65;91.00;97303.34;1742796;82;21057;-88
2022/09/14 00:16:06;;;;;;;;;;;;;;;14.65;91.05;97304.70;1720833;82;20198;-88
2022/09/14 00:18:32;;;;;;;;;;;;;;;14.68;91.08;97295.07;1713700;82;20188;-89
2022/09/14 00:21:03;;;;;;;;;;;;;;;14.67;91.34;97292.11;1728252;82;20442;-86
2022/09/14 00:23:29;;;;;;;;;;;;;;;14.64;91.96;97285.39;1738529;82;20205;-87
2022/09/14 00:25:55;;;;;;;;;;;;;;;14.57;92.18;97295.17;1718843;82;21109;-89
2022/09/14 00:28:20;;;;;;;;;;;;;;;14.53;92.29;97284.12;1720184;82;20209;-86
2022/09/14 00:30:46;;;;;;;;;;;;;;;14.49;93.02;97288.61;1732987;82;20263;-88
2022/09/14 00:33:12;;;;;;;;;;;;;;;14.43;93.62;97284.97;1745039;82;20584;-88
2022/09/14 00:35:38;;;;;;;;;;;;;;;14.35;93.73;97283.85;1731915;82;20743;-86
2022/09/14 00:38:05;;;;;;;;;;;;;;;14.31;94.13;97284.27;1715311;83;21749;-86
2022/09/14 00:40:31;;;;;;;;;;;;;;;14.26;94.32;97287.14;1711743;82;20139;-86
2022/09/14 00:42:56;;;;;;;;;;;;;;;14.21;94.44;97293.58;1720231;83;20704;-86
2022/09/14 00:45:23;;;;;;;;;;;;;;;14.16;94.83;97296.44;1732301;82;20185;-88
2022/09/14 00:47:50;;;;;;;;;;;;;;;14.14;95.05;97280.19;1744964;82;20174;-85
2022/09/14 00:50:16;;;;;;;;;;;;;;;14.11;95.64;97287.88;1736315;82;21075;-86
2022/09/14 00:52:44;;;;;;;;;;;;;;;14.07;95.92;97274.64;1745085;82;20193;-86
2022/09/14 00:55:13;;;;;;;;;;;;;;;14.04;96.46;97279.38;1726504;82;20139;-88
2022/09/14 00:57:42;;;;;;;;;;;;;;;14.01;96.81;97280.00;1720335;83;20494;-89
2022/09/14 01:00:09;;;;;;;;;;;;;;;14.00;97.08;97281.69;1724004;82;20174;-88
2022/09/14 01:02:35;;;;;;;;;;;;;;;13.99;97.36;97280.89;1720424;83;21799;-86
2022/09/14 01:05:01;;;;;;;;;;;;;;;14.02;97.34;97283.55;1720356;82;20833;-89
2022/09/14 01:07:52;;;;;;;;;;;;;;;13.99;98.56;97282.25;1720216;83;21594;-89
2022/09/14 01:10:44;;;;;;;;;;;;;;;13.98;97.16;97281.21;1665590;85;20200;-89
2022/09/14 01:13:42;;;;;;;;;;;;;;;13.98;97.50;97282.02;1674147;85;20221;-86
2022/09/14 01:16:24;;;;;;;;;;;;;;;13.92;97.65;97288.73;1656031;85;21943;-89
2022/09/14 01:19:03;;;;;;;;;;;;;;;13.93;97.95;97284.08;1654688;85;20165;-86
2022/09/14 01:21:33;;;;;;;;;;;;;;;13.92;98.37;97269.66;1676992;85;20199;-86
2022/09/14 01:24:04;;;;;;;;;;;;;;;13.90;98.42;97277.92;1734492;82;20155;-89
2022/09/14 01:26:49;;;;;;;;;;;;;;;13.88;98.35;97272.00;1720280;82;20143;-86
2022/09/14 01:29:17;;;;;;;;;;;;;;;13.86;99.62;97276.97;1720003;82;21137;-86
2022/09/14 01:31:55;;;;;;;;;;;;;;;13.87;99.57;97271.77;1720400;82;20175;-86
2022/09/14 01:34:43;;;;;;;;;;;;;;;13.85;99.81;97279.45;1721833;82;20167;-86
2022/09/14 01:37:26;;;;;;;;;;;;;;;13.77;99.22;97281.84;1745164;82;20198;-88
2022/09/14 01:40:01;;;;;;;;;;;;;;;13.73;100.00;97267.80;1732590;82;20163;-89
2022/09/14 01:42:26;;;;;;;;;;;;;;;13.75;99.99;97275.89;1744806;82;21025;-86
2022/09/14 01:44:54;;;;;;;;;;;;;;;13.79;99.81;97272.78;1745167;82;20232;-87
2022/09/14 01:47:30;;;;;;;;;;;;;;;13.83;100.00;97258.77;1745006;82;20224;-88
2022/09/14 01:50:02;;;;;;;;;;;;;;;13.82;100.00;97262.61;1744295;82;20190;-89
2022/09/14 01:52:34;;;;;;;;;;;;;;;13.83;100.00;97263.41;1744309;82;20213;-89
2022/09/14 01:55:15;;;;;;;;;;;;;;;13.79;100.00;97253.73;1745210;82;21129;-86
2022/09/14 01:57:47;;;;;;;;;;;;;;;13.80;100.00;97255.33;1744080;82;20474;-89
2022/09/14 02:00:18;;;;;;;;;;;;;;;13.76;100.00;97257.09;1688016;83;20414;-85
2022/09/14 02:02:48;;;;;;;;;;;;;;;13.74;100.00;97251.15;1717890;83;20997;-86
2022/09/14 02:05:17;;;;;;;;;;;;;;;13.69;100.00;97250.52;1723537;82;20198;-86
2022/09/14 02:07:43;;;;;;;;;;;;;;;13.67;100.00;97240.48;1720220;83;21216;-85
2022/09/14 02:10:10;;;;;;;;;;;;;;;13.72;100.00;97237.62;1720348;82;20209;-86
2022/09/14 02:12:36;;;;;;;;;;;;;;;13.71;100.00;97234.09;1720286;83;20152;-89
2022/09/14 02:15:06;;;;;;;;;;;;;;;13.63;100.00;97236.81;1720446;82;20189;-85
2022/09/14 02:17:33;;;;;;;;;;;;;;;13.54;100.00;97240.31;1701588;83;20166;-86
2022/09/14 02:19:59;;;;;;;;;;;;;;;13.55;100.00;97235.67;1731748;82;21094;-89
2022/09/14 02:22:26;;;;;;;;;;;;;;;13.48;100.00;97234.77;1715317;83;20227;-87
2022/09/14 02:24:52;;;;;;;;;;;;;;;13.43;100.00;97234.94;1723305;82;20611;-86
2022/09/14 02:27:18;;;;;;;;;;;;;;;13.42;100.00;97234.70;1715759;82;20619;-87
2022/09/14 02:29:44;;;;;;;;;;;;;;;13.42;100.00;97228.45;1739544;82;20202;-89
2022/09/14 02:32:25;;;;;;;;;;;;;;;13.43;100.00;97233.58;1720314;83;21123;-89
2022/09/14 02:35:06;;;;;;;;;;;;;;;13.42;100.00;97234.70;1726087;82;20197;-85
2022/09/14 02:37:44;;;;;;;;;;;;;;;13.41;100.00;97238.52;1745159;82;20154;-86
2022/09/14 02:40:47;;;;;;;;;;;;;;;13.37;100.00;97232.11;1715097;82;20400;-88
2022/09/14 02:43:16;;;;;;;;;;;;;;;13.36;100.00;97235.95;1720372;83;20127;-89
2022/09/14 02:46:13;;;;;;;;;;;;;;;13.33;100.00;97232.52;1731957;82;21775;-87
2022/09/14 02:48:54;;;;;;;;;;;;;;;13.31;100.00;97228.48;1744619;82;20488;-85
2022/09/14 02:51:34;;;;;;;;;;;;;;;13.25;100.00;97225.14;1744986;82;20162;-85
2022/09/14 02:54:13;;;;;;;;;;;;;;;13.21;100.00;97226.87;1738068;82;20198;-86
2022/09/14 02:56:38;;;;;;;;;;;;;;;13.17;100.00;97221.23;1720685;82;20166;-88
2022/09/14 02:59:04;;;;;;;;;;;;;;;13.10;100.00;97218.17;1720121;82;21070;-86
2022/09/14 03:01:30;;;;;;;;;;;;;;;13.03;100.00;97207.50;1744047;82;20259;-85
2022/09/14 03:03:56;;;;;;;;;;;;;;;13.05;100.00;97206.63;1738763;82;20292;-89
2022/09/14 03:06:22;;;;;;;;;;;;;;;13.02;100.00;97205.34;1720305;82;20169;-85
2022/09/14 03:08:48;;;;;;;;;;;;;;;12.98;100.00;97208.44;1720045;82;20166;-89
2022/09/14 03:11:14;;;;;;;;;;;;;;;13.02;100.00;97208.62;1720176;82;21089;-89
2022/09/14 03:13:39;;;;;;;;;;;;;;;13.02;100.00;97202.63;1720145;82;20257;-89
2022/09/14 03:16:12;;;;;;;;;;;;;;;12.99;100.00;97199.98;1720261;82;20245;-86
2022/09/14 03:18:38;;;;;;;;;;;;;;;13.01;100.00;97202.39;1723104;82;20167;-87
2022/09/14 03:21:14;;;;;;;;;;;;;;;13.07;100.00;97203.82;1696405;83;20120;-85
2022/09/14 03:23:42;;;;;;;;;;;;;;;13.03;100.00;97199.34;1718283;82;20984;-86
2022/09/14 03:26:18;;;;;;;;;;;;;;;12.96;100.00;97199.23;1697942;82;20176;-86
2022/09/14 03:28:44;;;;;;;;;;;;;;;12.94;100.00;97201.47;1701331;82;20415;-86
2022/09/14 03:31:10;;;;;;;;;;;;;;;12.90;100.00;97206.48;1720471;82;20170;-85
2022/09/14 03:33:36;;;;;;;;;;;;;;;12.90;100.00;97209.20;1720137;82;20468;-88
2022/09/14 03:36:11;;;;;;;;;;;;;;;12.90;100.00;97207.84;1735444;82;21943;-86
2022/09/14 03:38:37;;;;;;;;;;;;;;;12.93;100.00;97200.44;1744180;82;20572;-88
2022/09/14 03:41:08;;;;;;;;;;;;;;;12.98;100.00;97204.35;1745111;82;20227;-89
2022/09/14 03:43:34;;;;;;;;;;;;;;;13.02;100.00;97203.98;1744725;82;20214;-88
2022/09/14 03:46:07;;;;;;;;;;;;;;;13.04;100.00;97203.10;1745143;82;20236;-86
2022/09/14 03:48:33;;;;;;;;;;;;;;;13.01;100.00;97203.74;1744896;82;21296;-88
2022/09/14 03:51:00;;;;;;;;;;;;;;;13.01;100.00;97205.66;1744946;82;20260;-89
2022/09/14 03:53:26;;;;;;;;;;;;;;;12.99;100.00;97204.63;1743890;82;20305;-85
2022/09/14 03:55:52;;;;;;;;;;;;;;;13.05;100.00;97213.42;1720385;82;20210;-89
2022/09/14 03:58:18;;;;;;;;;;;;;;;13.11;100.00;97201.30;1720187;83;20217;-89
2022/09/14 04:00:43;;;;;;;;;;;;;;;13.18;100.00;97200.28;1735900;82;21910;-88
2022/09/14 04:03:09;;;;;;;;;;;;;;;13.18;100.00;97200.28;1744887;82;20299;-86
2022/09/14 04:05:35;;;;;;;;;;;;;;;13.15;100.00;97197.61;1745082;82;20712;-89
2022/09/14 04:08:01;;;;;;;;;;;;;;;13.18;100.00;97193.48;1745101;82;20744;-89
2022/09/14 04:10:26;;;;;;;;;;;;;;;13.22;100.00;97199.34;1735684;82;20727;-86
2022/09/14 04:12:52;;;;;;;;;;;;;;;13.16;100.00;97195.16;1720564;83;21165;-87
2022/09/14 04:15:18;;;;;;;;;;;;;;;13.16;100.00;97194.33;1728885;82;20181;-86
2022/09/14 04:17:44;;;;;;;;;;;;;;;13.15;100.00;97201.69;1720309;83;20281;-86
2022/09/14 04:20:10;;;;;;;;;;;;;;;13.04;100.00;97203.10;1720183;82;20249;-89
2022/09/14 04:22:35;;;;;;;;;;;;;;;13.03;100.00;97202.86;1720497;83;20178;-85
2022/09/14 04:25:01;;;;;;;;;;;;;;;13.02;100.00;97201.27;1728233;82;21084;-88
2022/09/14 04:27:28;;;;;;;;;;;;;;;13.00;100.00;97203.50;1715791;82;20210;-88
2022/09/14 04:29:54;;;;;;;;;;;;;;;13.03;100.00;97200.70;1695270;82;20171;-88
2022/09/14 04:32:20;;;;;;;;;;;;;;;13.09;100.00;97196.17;1720549;83;20186;-88
2022/09/14 04:34:47;;;;;;;;;;;;;;;13.15;100.00;97195.45;1731219;82;20268;-87
2022/09/14 04:37:13;;;;;;;;;;;;;;;13.26;100.00;97190.80;1745317;82;21168;-86
2022/09/14 04:39:39;;;;;;;;;;;;;;;13.32;100.00;97192.80;1736212;82;20294;-86
2022/09/14 04:42:05;;;;;;;;;;;;;;;13.38;100.00;97190.73;1745312;82;20208;-87
2022/09/14 04:44:31;;;;;;;;;;;;;;;13.41;100.00;97184.65;1745158;82;20185;-86
2022/09/14 04:46:56;;;;;;;;;;;;;;;13.43;100.00;97187.87;1745422;82;20208;-86
2022/09/14 04:49:22;;;;;;;;;;;;;;;13.43;100.00;97186.52;1745201;82;21090;-85
2022/09/14 04:51:48;;;;;;;;;;;;;;;13.42;100.00;97189.80;1745209;82;20216;-89
2022/09/14 04:54:15;;;;;;;;;;;;;;;13.39;100.00;97190.98;1744844;82;20811;-87
2022/09/14 04:56:41;;;;;;;;;;;;;;;13.38;100.00;97199.70;1745242;82;20393;-86
2022/09/14 04:59:07;;;;;;;;;;;;;;;13.33;100.00;97201.23;1744911;82;20724;-86
2022/09/14 05:01:35;;;;;;;;;;;;;;;13.37;100.00;97198.66;1738162;82;21736;-89
2022/09/14 05:04:02;;;;;;;;;;;;;;;13.41;100.00;97202.34;1730565;82;20210;-86
2022/09/14 05:06:30;;;;;;;;;;;;;;;13.46;100.00;97194.83;1733997;82;20166;-85
2022/09/14 05:08:56;;;;;;;;;;;;;;;13.53;100.00;97191.65;1733514;82;20976;-89
2022/09/14 05:11:24;;;;;;;;;;;;;;;13.61;100.00;97192.22;1726906;82;20434;-89
2022/09/14 05:13:50;;;;;;;;;;;;;;;13.66;100.00;97189.33;1721414;82;21054;-89
2022/09/14 05:16:18;;;;;;;;;;;;;;;13.74;100.00;97185.00;1719437;82;20199;-86
2022/09/14 05:18:44;;;;;;;;;;;;;;;13.76;100.00;97185.51;1715737;82;20198;-86
2022/09/14 05:21:12;;;;;;;;;;;;;;;13.86;100.00;97187.11;1718214;82;20166;-86
2022/09/14 05:23:38;;;;;;;;;;;;;;;13.92;100.00;97190.69;1733656;82;20179;-86
2022/09/14 05:26:04;;;;;;;;;;;;;;;13.98;100.00;97190.77;1735055;82;21078;-89
2022/09/14 05:28:30;;;;;;;;;;;;;;;14.00;100.00;97199.41;1712477;82;20197;-89
2022/09/14 05:30:55;;;;;;;;;;;;;;;14.00;100.00;97193.17;1721052;82;20217;-86
2022/09/14 05:33:21;;;;;;;;;;;;;;;14.02;100.00;97188.22;1740836;82;20202;-85
2022/09/14 05:35:47;;;;;;;;;;;;;;;14.08;100.00;97189.08;1730924;82;20188;-89
2022/09/14 05:38:13;;;;;;;;;;;;;;;14.11;100.00;97188.45;1740730;82;21061;-88
2022/09/14 05:40:39;;;;;;;;;;;;;;;14.18;100.00;97184.41;1721208;82;20274;-89
2022/09/14 05:43:05;;;;;;;;;;;;;;;14.29;100.00;97178.88;1731534;82;20197;-85
2022/09/14 05:45:32;;;;;;;;;;;;;;;14.35;100.00;97185.74;1720037;82;20165;-89
2022/09/14 05:48:00;;;;;;;;;;;;;;;14.42;100.00;97187.98;1702069;82;20494;-89
2022/09/14 05:50:26;;;;;;;;;;;;;;;14.47;100.00;97189.22;1738055;82;21069;-86
2022/09/14 05:52:54;;;;;;;;;;;;;;;14.50;100.00;97194.80;1725945;82;38234;-89
2022/09/14 05:55:19;;;;;;;;;;;;;;;14.51;100.00;97191.52;1719219;82;20178;-85
2022/09/14 05:57:48;;;;;;;;;;;;;;;14.53;100.00;97190.65;1738601;82;20210;-85
2022/09/14 06:00:15;;;;;;;;;;;;;;;14.59;100.00;97191.48;1732155;82;20173;-86
2022/09/14 06:02:46;;;;;;;;;;;;;;;14.64;100.00;97186.44;1730909;82;21018;-88
2022/09/14 06:05:12;;;;;;;;;;;;;;;14.75;99.75;97191.77;1728199;82;20197;-86
2022/09/14 06:07:37;;;;;;;;;;;;;;;14.79;99.41;97190.56;1732466;82;20213;-86
2022/09/14 06:10:04;;;;;;;;;;;;;;;14.86;99.91;97184.81;1727233;82;20188;-85
2022/09/14 06:12:30;;;;;;;;;;;;;;;14.95;99.80;97185.60;1726135;82;20227;-86
2022/09/14 06:14:56;;;;;;;;;;;;;;;15.06;99.26;97183.86;1725592;82;21557;-85
2022/09/14 06:17:21;;;;;;;;;;;;;;;15.17;98.92;97183.14;1716539;82;20283;-89
2022/09/14 06:19:47;;;;;;;;;;;;;;;15.27;98.16;97187.42;1700298;82;20716;-86
2022/09/14 06:22:13;;;;;;;;;;;;;;;15.34;97.02;97185.55;1719559;82;20257;-89
2022/09/14 06:24:42;;;;;;;;;;;;;;;15.32;96.89;97183.15;1719763;82;20290;-86
2022/09/14 06:27:10;;;;;;;;;;;;;;;15.27;97.18;97184.70;1710710;82;21091;-88
2022/09/14 06:29:36;;;;;;;;;;;;;;;15.32;97.33;97182.35;1732741;82;20272;-86
2022/09/14 06:32:02;;;;;;;;;;;;;;;15.43;98.18;97181.63;1731174;82;20192;-88
2022/09/14 06:34:29;;;;;;;;;;;;;;;15.57;97.89;97181.38;1727263;82;20234;-86
2022/09/14 06:36:55;;;;;;;;;;;;;;;15.65;98.70;97179.76;1715868;82;20189;-86
2022/09/14 06:39:21;;;;;;;;;;;;;;;15.74;99.18;97181.29;1703387;82;21060;-86
2022/09/14 06:41:46;;;;;;;;;;;;;;;15.92;98.54;97190.71;1720199;82;20218;-88
2022/09/14 06:44:13;;;;;;;;;;;;;;;16.14;96.82;97192.27;1712086;82;20187;-88
2022/09/14 06:46:38;;;;;;;;;;;;;;;16.41;95.33;97195.81;1725518;82;20560;-88
2022/09/14 06:49:12;;;;;;;;;;;;;;;16.75;94.50;97200.67;1730509;82;20242;-86
2022/09/14 06:51:42;;;;;;;;;;;;;;;16.88;94.15;97192.16;1726269;82;21249;-86
2022/09/14 06:54:09;;;;;;;;;;;;;;;17.02;94.14;97186.37;1724644;82;20168;-86
2022/09/14 06:56:37;;;;;;;;;;;;;;;17.12;93.41;97182.38;1733215;82;20477;-85
2022/09/14 06:59:03;;;;;;;;;;;;;;;17.26;94.14;97180.64;1731766;82;20213;-87
2022/09/14 07:01:29;;;;;;;;;;;;;;;17.33;93.65;97177.56;1723183;82;20162;-87
2022/09/14 07:03:54;;;;;;;;;;;;;;;17.43;93.82;97177.11;1739960;82;21070;-88
2022/09/14 07:06:22;;;;;;;;;;;;;;;17.47;94.09;97175.84;1724593;82;20212;-87
2022/09/14 07:08:48;;;;;;;;;;;;;;;17.54;91.99;97182.11;1718506;82;20196;-89
2022/09/14 07:11:15;;;;;;;;;;;;;;;17.66;93.80;97182.88;1718748;82;20434;-89
2022/09/14 07:13:42;;;;;;;;;;;;;;;17.70;91.41;97181.09;1720737;82;20192;-89
2022/09/14 07:16:08;;;;;;;;;;;;;;;17.83;91.62;97183.20;1717877;82;21913;-86
2022/09/14 07:18:34;;;;;;;;;;;;;;;17.95;91.90;97186.50;1719377;82;20791;-86
2022/09/14 07:21:05;;;;;;;;;;;;;;;18.02;91.96;97192.95;1713086;82;20224;-90
2022/09/14 07:23:31;;;;;;;;;;;;;;;18.04;89.97;97188.52;1730753;82;20193;-86
2022/09/14 07:26:06;;;;;;;;;;;;;;;18.05;89.62;97190.12;1721910;82;20235;-86
2022/09/14 07:28:31;;;;;;;;;;;;;;;18.08;87.57;97192.73;1721634;82;22338;-86
2022/09/14 07:30:57;;;;;;;;;;;;;;;18.14;88.56;97192.71;1704593;82;20295;-86
2022/09/14 07:33:23;;;;;;;;;;;;;;;18.15;88.04;97192.94;1727614;81;20273;-89
2022/09/14 07:35:49;;;;;;;;;;;;;;;18.22;87.30;97187.66;1721605;80;20428;-89
2022/09/14 07:38:14;;;;;;;;;;;;;;;18.36;90.08;97185.86;1738420;80;21497;-86
2022/09/14 07:40:41;;;;;;;;;;;;;;;18.40;89.50;97184.83;1714067;82;21162;-86
2022/09/14 07:43:06;;;;;;;;;;;;;;;18.41;89.51;97183.67;1724964;80;20234;-86
2022/09/14 07:45:33;;;;;;;;;;;;;;;18.43;90.18;97188.23;1722242;82;20235;-89
2022/09/14 07:47:59;;;;;;;;;;;;;;;18.51;90.67;97175.50;1725205;82;20271;-88
2022/09/14 07:50:25;;;;;;;;;;;;;;;18.51;89.34;97178.24;1721373;82;20214;-86
2022/09/14 07:52:51;;;;;;;;;;;;;;;18.47;89.59;97181.48;1736082;82;21089;-89
2022/09/14 07:55:17;;;;;;;;;;;;;;;18.43;89.57;97175.88;1729645;82;20207;-86
2022/09/14 07:57:45;;;;;;;;;;;;;;;18.37;89.76;97177.85;1722754;82;20233;-86
2022/09/14 08:00:11;;;;;;;;;;;;;;;18.32;89.28;97176.17;1713844;82;20547;-87
2022/09/14 08:02:37;;;;;;;;;;;;;;;18.24;89.81;97176.55;1719732;82;20347;-86
2022/09/14 08:05:03;;;;;;;;;;;;;;;18.36;89.64;97176.27;1719626;82;21047;-89
2022/09/14 08:07:28;;;;;;;;;;;;;;;18.36;90.03;97173.52;1728040;82;20566;-90
2022/09/14 08:09:55;;;;;;;;;;;;;;;18.44;90.14;97173.94;1727178;82;20306;-88
2022/09/14 08:12:21;;;;;;;;;;;;;;;18.49;90.26;97174.48;1725563;82;20194;-89
2022/09/14 08:14:47;;;;;;;;;;;;;;;18.55;89.71;97171.72;1729745;80;20225;-88
2022/09/14 08:17:12;;;;;;;;;;;;;;;18.59;90.03;97171.80;1724554;82;21102;-86
2022/09/14 08:19:40;;;;;;;;;;;;;;;18.71;89.72;97164.09;1728056;82;20196;-86
2022/09/14 08:22:05;;;;;;;;;;;;;;;18.94;89.25;97171.14;1729864;80;20647;-88
2022/09/14 08:24:32;;;;;;;;;;;;;;;19.01;88.94;97167.20;1722675;82;20226;-89
2022/09/14 08:26:58;;;;;;;;;;;;;;;19.13;88.43;97167.09;1729158;80;20207;-89
2022/09/14 08:29:24;;;;;;;;;;;;;;;19.30;87.42;97168.66;1725439;82;21164;-86
2022/09/14 08:31:50;;;;;;;;;;;;;;;19.33;85.99;97166.02;1727087;82;20197;-86
2022/09/14 08:34:16;;;;;;;;;;;;;;;19.33;85.45;97167.39;1732702;82;20314;-89
2022/09/14 08:36:42;;;;;;;;;;;;;;;19.30;84.35;97166.71;1718348;82;21383;-86
2022/09/14 08:39:09;;;;;;;;;;;;;;;19.30;87.32;97161.80;1742881;80;20551;-87
2022/09/14 08:41:41;;;;;;;;;;;;;;;19.24;87.32;97161.30;1741944;82;21840;-86
2022/09/14 08:44:30;;;;;;;;;;;;;;;19.17;87.46;97155.63;1721386;82;20221;-86
2022/09/14 08:47:04;;;;;;;;;;;;;;;19.18;88.07;97155.05;1727559;82;20544;-88
2022/09/14 08:49:39;;;;;;;;;;;;;;;19.18;87.83;97159.97;1734387;80;20262;-85
2022/09/14 08:52:08;;;;;;;;;;;;;;;19.24;88.56;97157.75;1727999;80;20224;-89
2022/09/14 08:54:36;;;;;;;;;;;;;;;19.21;87.23;97159.24;1721507;82;21167;-86
2022/09/14 08:57:17;;;;;;;;;;;;;;;19.28;88.17;97159.41;1727351;82;20261;-89
2022/09/14 08:59:55;;;;;;;;;;;;;;;19.35;88.12;97163.70;1718243;82;20224;-87
2022/09/14 09:02:25;;;;;;;;;;;;;;;19.32;88.03;97162.27;1733494;80;20280;-87
2022/09/14 09:04:53;;;;;;;;;;;;;;;19.25;86.86;97166.20;1721934;82;20176;-89
2022/09/14 09:07:31;;;;;;;;;;;;;;;19.36;88.06;97166.67;1726935;82;21773;-86
2022/09/14 09:09:57;;;;;;;;;;;;;;;19.48;87.91;97165.75;1722886;82;20200;-89
2022/09/14 09:12:28;;;;;;;;;;;;;;;19.59;87.06;97159.96;1729708;82;20242;-87
2022/09/14 09:14:56;;;;;;;;;;;;;;;19.67;85.63;97162.29;1724924;80;20284;-86
2022/09/14 09:17:32;;;;;;;;;;;;;;;19.77;85.45;97164.47;1726768;82;20465;-86
2022/09/14 09:20:10;;;;;;;;;;;;;;;19.85;84.12;97155.22;1726397;82;21084;-89
2022/09/14 09:22:41;;;;;;;;;;;;;;;19.86;83.75;97160.92;1718320;82;20231;-87
2022/09/14 09:25:22;;;;;;;;;;;;;;;19.84;82.45;97156.95;1718498;82;20507;-88
2022/09/14 09:27:47;;;;;;;;;;;;;;;19.77;84.38;97159.55;1737257;80;20185;-89
2022/09/14 09:30:13;;;;;;;;;;;;;;;19.73;84.05;97162.20;1729417;82;20174;-86
2022/09/14 09:32:39;;;;;;;;;;;;;;;19.73;84.17;97164.38;1702065;82;21149;-89
2022/09/14 09:35:06;;;;;;;;;;;;;;;19.69;84.88;97165.47;1729583;82;20199;-86
2022/09/14 09:37:35;;;;;;;;;;;;;;;19.69;84.24;97171.76;1726792;80;20511;-89
2022/09/14 09:40:02;;;;;;;;;;;;;;;19.62;84.90;97167.48;1736139;80;20434;-87
2022/09/14 09:42:27;;;;;;;;;;;;;;;19.60;85.40;97171.17;1720736;82;20219;-86
2022/09/14 09:44:59;;;;;;;;;;;;;;;19.59;85.41;97172.91;1731228;82;21165;-89
2022/09/14 09:47:31;;;;;;;;;;;;;;;19.57;85.22;97173.81;1697196;82;20197;-88
2022/09/14 09:50:05;;;;;;;;;;;;;;;19.59;85.25;97169.58;1713905;80;20164;-87
2022/09/14 09:52:30;;;;;;;;;;;;;;;19.58;85.16;97175.44;1726135;82;20192;-86
2022/09/14 09:54:56;;;;;;;;;;;;;;;19.53;84.78;97170.97;1723645;82;20255;-88
2022/09/14 09:57:28;;;;;;;;;;;;;;;19.54;84.07;97180.80;1727405;82;21108;-86
2022/09/14 10:00:19;;;;;;;;;;;;;;;19.47;84.39;97179.84;1734163;82;20346;-86
2022/09/14 10:02:45;;;;;;;;;;;;;;;19.43;84.77;97176.45;1723703;80;20165;-86
2022/09/14 10:05:31;;;;;;;;;;;;;;;19.49;84.65;97177.56;1724971;82;20282;-89
2022/09/14 10:07:58;;;;;;;;;;;;;;;19.47;84.43;97167.48;1740602;82;20189;-89
2022/09/14 10:10:41;;;;;;;;;;;;;;;19.49;84.07;97169.31;1715116;82;21069;-87
2022/09/14 10:13:28;;;;;;;;;;;;;;;19.37;84.84;97169.62;1724452;82;20442;-86
2022/09/14 10:16:06;;;;;;;;;;;;;;;19.30;84.33;97167.30;1713377;80;20198;-86
2022/09/14 10:18:31;;;;;;;;;;;;;;;19.21;84.74;97165.31;1723314;82;20211;-88
2022/09/14 10:21:07;;;;;;;;;;;;;;;19.16;84.94;97159.53;1728590;82;20203;-89
2022/09/14 10:23:35;;;;;;;;;;;;;;;19.08;84.83;97162.68;1721979;82;21094;-86
2022/09/14 10:26:13;;;;;;;;;;;;;;;19.00;85.04;97165.03;1726993;80;20219;-86
2022/09/14 10:28:41;;;;;;;;;;;;;;;18.92;85.68;97163.84;1733126;82;20441;-89
2022/09/14 10:31:19;;;;;;;;;;;;;;;18.87;85.87;97161.57;1724387;82;20168;-89
2022/09/14 10:33:52;;;;;;;;;;;;;;;18.87;85.85;97157.45;1730694;82;20455;-86
2022/09/14 10:36:34;;;;;;;;;;;;;;;18.80;86.56;97157.30;1735202;82;21253;-88
2022/09/14 10:39:04;;;;;;;;;;;;;;;18.82;86.49;97157.73;1732948;80;20220;-86
2022/09/14 10:41:57;;;;;;;;;;;;;;;18.79;86.39;97156.25;1715283;82;20277;-88
2022/09/14 10:44:27;;;;;;;;;;;;;;;18.77;86.98;97152.50;1693754;82;20349;-86
2022/09/14 10:47:22;;;;;;;;;;;;;;;18.82;86.99;97156.94;1716335;82;20410;-86
2022/09/14 10:50:18;;;;;;;;;;;;;;;18.86;87.12;97152.32;1721169;82;21211;-88
2022/09/14 10:53:19;;;;;;;;;;;;;;;18.85;87.22;97155.64;1731248;82;20155;-86
2022/09/14 10:56:01;;;;;;;;;;;;;;;18.83;87.32;97151.67;1726725;82;20494;-86
2022/09/14 10:58:37;;;;;;;;;;;;;;;18.85;87.65;97153.48;1728943;82;20533;-88
2022/09/14 11:01:09;;;;;;;;;;;;;;;18.83;87.92;97148.92;1714869;82;20163;-86
2022/09/14 11:03:44;;;;;;;;;;;;;;;18.84;87.85;97146.40;1727801;80;21807;-88
2022/09/14 11:06:41;;;;;;;;;;;;;;;18.84;88.37;97148.56;1716804;82;20210;-86
2022/09/14 11:09:13;;;;;;;;;;;;;;;18.86;88.73;97144.09;1722686;82;20475;-86
2022/09/14 11:11:55;;;;;;;;;;;;;;;18.90;88.77;97146.94;1719621;82;20177;-88
2022/09/14 11:14:24;;;;;;;;;;;;;;;18.92;88.52;97141.30;1727766;80;20295;-86
2022/09/14 11:16:57;;;;;;;;;;;;;;;18.94;87.98;97139.00;1729320;82;21020;-88
2022/09/14 11:19:41;;;;;;;;;;;;;;;18.86;88.20;97133.11;1730738;82;20219;-86
2022/09/14 11:22:23;;;;;;;;;;;;;;;18.83;88.78;97130.51;1720322;82;20518;-86
2022/09/14 11:25:10;;;;;;;;;;;;;;;18.77;88.98;97127.80;1715103;82;20323;-88
2022/09/14 11:27:45;;;;;;;;;;;;;;;18.80;89.31;97126.29;1733669;80;20559;-86
2022/09/14 11:30:18;;;;;;;;;;;;;;;18.84;89.54;97123.07;1723737;82;21053;-86
2022/09/14 11:32:54;;;;;;;;;;;;;;;18.79;90.19;97105.48;1737482;82;20220;-86
2022/09/14 11:35:26;;;;;;;;;;;;;;;18.80;90.17;97107.91;1719253;82;20574;-89
2022/09/14 11:37:54;;;;;;;;;;;;;;;18.77;90.02;97112.70;1711750;82;20476;-89
2022/09/14 11:40:30;;;;;;;;;;;;;;;18.73;90.21;97112.41;1719384;80;20290;-87
2022/09/14 11:43:02;;;;;;;;;;;;;;;18.70;90.37;97115.84;1724528;82;21326;-86
2022/09/14 11:45:45;;;;;;;;;;;;;;;18.66;90.73;97114.98;1723012;82;20527;-87
2022/09/14 11:48:30;;;;;;;;;;;;;;;18.63;90.85;97112.89;1724189;82;20332;-86
2022/09/14 11:51:03;;;;;;;;;;;;;;;18.58;90.70;97112.02;1721207;80;20965;-88
2022/09/14 11:53:29;;;;;;;;;;;;;;;18.56;91.72;97110.79;1698570;82;20216;-88
2022/09/14 11:55:54;;;;;;;;;;;;;;;18.54;90.84;97112.52;1682709;82;21144;-86
2022/09/14 11:58:22;;;;;;;;;;;;;;;18.48;92.27;97107.06;1691392;84;20235;-86
2022/09/14 12:00:52;;;;;;;;;;;;;;;18.45;91.75;97109.70;1680460;84;20147;-89
2022/09/14 12:03:19;;;;;;;;;;;;;;;18.36;92.42;97118.09;1656675;83;20204;-87
2022/09/14 12:05:46;;;;;;;;;;;;;;;18.27;93.64;97119.63;1738020;82;20494;-88
2022/09/14 12:08:34;;;;;;;;;;;;;;;18.20;92.90;97122.75;1739350;82;21228;-87
2022/09/14 12:11:09;;;;;;;;;;;;;;;18.12;93.72;97133.33;1732074;82;20200;-87
2022/09/14 12:13:35;;;;;;;;;;;;;;;18.02;93.83;97131.86;1724057;82;20189;-87
2022/09/14 12:16:05;;;;;;;;;;;;;;;17.94;93.76;97133.61;1723313;80;20203;-88
2022/09/14 12:18:31;;;;;;;;;;;;;;;17.89;93.62;97132.50;1725676;82;20182;-87
2022/09/14 12:21:07;;;;;;;;;;;;;;;17.84;94.10;97133.31;1727199;82;21132;-88
2022/09/14 12:23:40;;;;;;;;;;;;;;;17.78;94.34;97133.36;1723383;82;20208;-88
2022/09/14 12:26:13;;;;;;;;;;;;;;;17.70;95.12;97140.56;1723281;82;20200;-87
2022/09/14 12:28:46;;;;;;;;;;;;;;;17.67;94.22;97142.58;1722768;80;20165;-86
2022/09/14 12:31:11;;;;;;;;;;;;;;;17.61;93.85;97140.67;1717218;82;20419;-86
2022/09/14 12:33:40;;;;;;;;;;;;;;;17.59;94.27;97138.83;1701838;82;21200;-87
2022/09/14 12:36:20;;;;;;;;;;;;;;;17.57;95.89;97130.74;1725567;82;20568;-87
2022/09/14 12:38:53;;;;;;;;;;;;;;;17.53;95.10;97130.65;1729655;80;20199;-87
2022/09/14 12:41:23;;;;;;;;;;;;;;;17.48;96.74;97126.77;1726764;80;20230;-88
2022/09/14 12:43:52;;;;;;;;;;;;;;;17.40;99.39;97121.65;1715218;82;20183;-89
2022/09/14 12:46:25;;;;;;;;;;;;;;;17.41;100.00;97126.55;1717686;82;21120;-88
2022/09/14 12:49:01;;;;;;;;;;;;;;;17.39;98.45;97126.11;1726554;82;20174;-89
2022/09/14 12:51:31;;;;;;;;;;;;;;;17.31;100.00;97118.25;1715054;80;20200;-87
2022/09/14 12:54:10;;;;;;;;;;;;;;;17.27;100.00;97122.03;1720628;82;20434;-88
2022/09/14 12:56:55;;;;;;;;;;;;;;;17.18;99.20;97117.48;1720819;82;20227;-88
2022/09/14 12:59:37;;;;;;;;;;;;;;;17.13;100.00;97119.07;1729519;82;21053;-88